createdAt,value
2018-07-23T00:04:34.598Z,101088.00
2018-07-23T00:09:27.820Z,101084.00
2018-07-23T00:14:21.027Z,101080.00
2018-07-23T00:19:14.386Z,101088.00
2018-07-23T00:24:07.628Z,101088.00
2018-07-23T00:29:00.775Z,101087.00
2018-07-23T00:33:54.054Z,101083.00
2018-07-23T00:38:47.249Z,101085.00
2018-07-23T00:43:40.471Z,101088.00
2018-07-23T00:48:33.675Z,101089.00
2018-07-23T00:53:26.924Z,101085.00
2018-07-23T00:58:20.167Z,101085.00
2018-07-23T01:03:13.383Z,101090.00
2018-07-23T01:08:07.418Z,101092.00
2018-07-23T01:13:00.605Z,101096.00
2018-07-23T01:17:53.825Z,101102.00
2018-07-23T01:22:47.117Z,101102.00
2018-07-23T01:27:40.709Z,101105.00
2018-07-23T01:32:33.870Z,101106.00
2018-07-23T01:37:27.085Z,101101.00
2018-07-23T01:42:20.356Z,101100.00
2018-07-23T01:47:13.606Z,101106.00
2018-07-23T01:52:06.733Z,101109.00
2018-07-23T01:56:59.943Z,101110.00
2018-07-23T02:01:53.228Z,101113.00
2018-07-23T02:06:46.475Z,101116.00
2018-07-23T02:11:39.696Z,101117.00
2018-07-23T02:16:33.167Z,101123.00
2018-07-23T02:21:26.380Z,101129.00
2018-07-23T02:26:19.569Z,101129.00
2018-07-23T02:31:12.821Z,101129.00
2018-07-23T02:36:06.045Z,101134.00
2018-07-23T02:40:59.129Z,101131.00
2018-07-23T02:45:52.382Z,101134.00
2018-07-23T02:50:45.687Z,101131.00
2018-07-23T02:55:38.894Z,101129.00
2018-07-23T03:00:32.023Z,101133.00
2018-07-23T03:05:25.295Z,101137.00
2018-07-23T03:10:18.513Z,101142.00
2018-07-23T03:15:11.833Z,101147.00
2018-07-23T03:20:05.241Z,101150.00
2018-07-23T03:24:58.594Z,101151.00
2018-07-23T03:29:51.809Z,101152.00
2018-07-23T03:34:45.089Z,101163.00
2018-07-23T03:39:38.295Z,101170.00
2018-07-23T03:44:31.533Z,101169.00
2018-07-23T03:49:24.719Z,101171.00
2018-07-23T03:54:17.961Z,101171.00
2018-07-23T03:59:11.195Z,101177.00
2018-07-23T04:04:04.427Z,101177.00
2018-07-23T04:08:57.621Z,101181.00
2018-07-23T04:13:50.845Z,101176.00
2018-07-23T04:18:44.059Z,101169.00
2018-07-23T04:23:37.273Z,101172.00
2018-07-23T04:28:30.411Z,101172.00
2018-07-23T04:33:23.621Z,101183.00
2018-07-23T04:38:16.741Z,101182.00
2018-07-23T04:43:10.059Z,101175.00
2018-07-23T04:48:03.290Z,101182.00
2018-07-23T04:52:56.501Z,101184.00
2018-07-23T04:57:49.780Z,101182.00
2018-07-23T05:02:42.988Z,101186.00
2018-07-23T05:07:36.220Z,101187.00
2018-07-23T05:12:29.443Z,101176.00
2018-07-23T05:17:22.675Z,101173.00
2018-07-23T05:22:16.028Z,101179.00
2018-07-23T05:27:09.209Z,101169.00
2018-07-23T05:32:02.464Z,101180.00
2018-07-23T05:36:55.677Z,101176.00
2018-07-23T05:41:48.911Z,101173.00
2018-07-23T05:46:42.113Z,101173.00
2018-07-23T05:51:35.397Z,101175.00
2018-07-23T05:56:28.597Z,101180.00
2018-07-23T06:01:21.840Z,101173.00
2018-07-23T06:06:15.190Z,101185.00
2018-07-23T06:11:08.363Z,101186.00
2018-07-23T06:16:01.602Z,101184.00
2018-07-23T06:20:54.829Z,101183.00
2018-07-23T06:25:48.163Z,101186.00
2018-07-23T06:30:41.473Z,101196.00
2018-07-23T06:35:36.111Z,101197.00
2018-07-23T06:40:29.391Z,101201.00
2018-07-23T06:45:22.491Z,101203.00
2018-07-23T06:50:15.835Z,101205.00
2018-07-23T06:55:09.036Z,101209.00
2018-07-23T07:00:02.295Z,101210.00
2018-07-23T07:04:55.529Z,101206.00
2018-07-23T07:09:48.863Z,101208.00
2018-07-23T07:14:42.123Z,101211.00
2018-07-23T07:19:35.347Z,101207.00
2018-07-23T07:24:28.553Z,101202.00
2018-07-23T07:29:21.758Z,101198.00
2018-07-23T07:34:15.715Z,101196.00
2018-07-23T07:39:10.730Z,101190.00
2018-07-23T07:44:03.904Z,101189.00
2018-07-23T07:48:57.023Z,101179.00
2018-07-23T07:53:50.317Z,101184.00
2018-07-23T07:58:43.545Z,101189.00
2018-07-23T08:03:36.811Z,101185.00
2018-07-23T08:08:29.942Z,101172.00
2018-07-23T08:13:23.295Z,101176.00
2018-07-23T08:18:16.628Z,101179.00
2018-07-23T08:23:16.629Z,101171.00
2018-07-23T08:28:09.908Z,101176.00
2018-07-23T08:33:03.215Z,101177.00
2018-07-23T08:37:56.332Z,101174.00
2018-07-23T08:42:49.532Z,101173.00
2018-07-23T08:47:42.755Z,101174.00
2018-07-23T08:52:36.037Z,101162.00
2018-07-23T08:57:29.319Z,101171.00
2018-07-23T09:02:22.583Z,101164.00
2018-07-23T09:07:15.714Z,101167.00
2018-07-23T09:12:08.935Z,101176.00
2018-07-23T09:17:02.247Z,101172.00
2018-07-23T09:21:55.472Z,101172.00
2018-07-23T09:26:48.691Z,101177.00
2018-07-23T09:31:41.928Z,101177.00
2018-07-23T09:36:35.113Z,101175.00
2018-07-23T09:41:28.355Z,101180.00
2018-07-23T09:46:21.433Z,101177.00
2018-07-23T09:51:14.723Z,101183.00
2018-07-23T09:56:08.290Z,101171.00
2018-07-23T10:01:07.088Z,101171.00
2018-07-23T10:06:00.245Z,101162.00
2018-07-23T10:10:53.449Z,101172.00
2018-07-23T10:15:46.740Z,101163.00
2018-07-23T10:20:39.953Z,101160.00
2018-07-23T10:25:33.164Z,101159.00
2018-07-23T10:30:26.437Z,101152.00
2018-07-23T10:35:19.704Z,101152.00
2018-07-23T10:40:12.925Z,101153.00
2018-07-23T10:45:06.242Z,101153.00
2018-07-23T10:49:59.556Z,101154.00
2018-07-23T10:54:52.775Z,101143.00
2018-07-23T10:59:45.998Z,101143.00
2018-07-23T11:04:39.300Z,101145.00
2018-07-23T11:09:32.513Z,101139.00
2018-07-23T11:14:25.733Z,101139.00
2018-07-23T11:19:19.051Z,101134.00
2018-07-23T11:24:12.352Z,101137.00
2018-07-23T11:29:05.582Z,101137.00
2018-07-23T11:33:58.793Z,101130.00
2018-07-23T11:38:52.052Z,101129.00
2018-07-23T11:43:45.244Z,101136.00
2018-07-23T11:48:38.383Z,101131.00
2018-07-23T11:53:31.600Z,101132.00
2018-07-23T11:58:24.942Z,101136.00
2018-07-23T12:03:18.167Z,101136.00
2018-07-23T12:08:11.383Z,101132.00
2018-07-23T12:13:05.197Z,101125.00
2018-07-23T12:17:58.368Z,101137.00
2018-07-23T12:22:51.473Z,101121.00
2018-07-23T12:27:44.717Z,101117.00
2018-07-23T12:32:38.829Z,101118.00
2018-07-23T12:37:32.088Z,101116.00
2018-07-23T12:42:25.190Z,101114.00
2018-07-23T12:47:18.458Z,101114.00
2018-07-23T12:52:11.825Z,101113.00
2018-07-23T12:57:05.230Z,101105.00
2018-07-23T13:01:58.496Z,101111.00
2018-07-23T13:06:51.733Z,101103.00
2018-07-23T13:11:44.993Z,101103.00
2018-07-23T13:16:38.216Z,101104.00
2018-07-23T13:21:31.768Z,101103.00
2018-07-23T13:26:25.039Z,101104.00
2018-07-23T13:31:18.278Z,101099.00
2018-07-23T13:36:11.538Z,101102.00
2018-07-23T13:41:04.828Z,101091.00
2018-07-23T13:45:58.063Z,101092.00
2018-07-23T13:50:51.346Z,101086.00
2018-07-23T13:55:44.611Z,101087.00
2018-07-23T14:00:37.864Z,101085.00
2018-07-23T14:05:31.167Z,101082.00
2018-07-23T14:10:24.405Z,101073.00
2018-07-23T14:15:17.605Z,101069.00
2018-07-23T14:20:10.976Z,101079.00
2018-07-23T14:25:04.556Z,101076.00
2018-07-23T14:29:57.782Z,101079.00
2018-07-23T14:34:50.998Z,101076.00
2018-07-23T14:39:44.295Z,101065.00
2018-07-23T14:44:37.501Z,101060.00
2018-07-23T14:49:30.757Z,101055.00
2018-07-23T14:54:23.925Z,101047.00
2018-07-23T14:59:17.197Z,101049.00
2018-07-23T15:04:10.452Z,101047.00
2018-07-23T15:09:05.320Z,101042.00
2018-07-23T15:13:58.524Z,101045.00
2018-07-23T15:18:51.670Z,101043.00
2018-07-23T15:23:44.817Z,101041.00
2018-07-23T15:28:38.116Z,101036.00
2018-07-23T15:33:31.312Z,101037.00
2018-07-23T15:38:24.417Z,101039.00
2018-07-23T15:43:17.729Z,101033.00
2018-07-23T15:48:10.923Z,101030.00
2018-07-23T15:53:04.146Z,101036.00
2018-07-23T15:57:57.376Z,101025.00
2018-07-23T16:02:50.575Z,101024.00
2018-07-23T16:07:43.877Z,101027.00
2018-07-23T16:12:37.095Z,101028.00
2018-07-23T16:17:30.318Z,101018.00
2018-07-23T16:22:23.512Z,101020.00
2018-07-23T16:27:16.798Z,101019.00
2018-07-23T16:32:10.135Z,101019.00
2018-07-23T16:37:03.378Z,101020.00
2018-07-23T16:41:56.543Z,101022.00
2018-07-23T16:46:49.920Z,101018.00
2018-07-23T16:51:42.985Z,101019.00
2018-07-23T16:56:36.302Z,101015.00
2018-07-23T17:01:29.512Z,101018.00
2018-07-23T17:06:22.733Z,101013.00
2018-07-23T17:11:15.921Z,101006.00
2018-07-23T17:16:09.222Z,101007.00
2018-07-23T17:21:02.498Z,101011.00
2018-07-23T17:25:55.725Z,101012.00
2018-07-23T17:30:48.867Z,101012.00
2018-07-23T17:35:42.095Z,101012.00
2018-07-23T17:40:35.340Z,101013.00
2018-07-23T17:45:29.461Z,101009.00
2018-07-23T17:50:22.707Z,101010.00
2018-07-23T17:55:15.950Z,101012.00
2018-07-23T18:00:09.286Z,101009.00
2018-07-23T18:05:02.548Z,101010.00
2018-07-23T18:09:55.771Z,101008.00
2018-07-23T18:14:48.988Z,101008.00
2018-07-23T18:19:42.155Z,101014.00
2018-07-23T18:24:35.366Z,101015.00
2018-07-23T18:29:28.616Z,101013.00
2018-07-23T18:34:21.767Z,101011.00
2018-07-23T18:39:14.972Z,101011.00
2018-07-23T18:44:08.438Z,101014.00
2018-07-23T18:49:27.351Z,101015.00
2018-07-23T18:54:21.682Z,101017.00
2018-07-23T18:59:14.974Z,101014.00
2018-07-23T19:04:08.602Z,101013.00
2018-07-23T19:09:01.826Z,101018.00
2018-07-23T19:13:55.064Z,101022.00
2018-07-23T19:18:48.312Z,101025.00
2018-07-23T19:23:41.505Z,101029.00
2018-07-23T19:28:34.756Z,101032.00
2018-07-23T19:33:27.961Z,101036.00
2018-07-23T19:38:21.174Z,101036.00
2018-07-23T19:43:14.361Z,101038.00
2018-07-23T19:48:07.459Z,101037.00
2018-07-23T19:53:00.663Z,101046.00
2018-07-23T19:57:53.900Z,101047.00
2018-07-23T20:02:47.121Z,101054.00
2018-07-23T20:07:40.361Z,101052.00
2018-07-23T20:12:33.586Z,101046.00
2018-07-23T20:17:26.809Z,101051.00
2018-07-23T20:22:20.012Z,101048.00
2018-07-23T20:27:13.314Z,101043.00
2018-07-23T20:32:06.646Z,101045.00
2018-07-23T20:36:59.895Z,101042.00
2018-07-23T20:41:53.216Z,101046.00
2018-07-23T20:46:46.443Z,101045.00
2018-07-23T20:51:40.269Z,101046.00
2018-07-23T20:56:33.555Z,101050.00
2018-07-23T21:01:26.769Z,101050.00
2018-07-23T21:06:20.026Z,101046.00
2018-07-23T21:11:13.274Z,101041.00
2018-07-23T21:16:06.558Z,101044.00
2018-07-23T21:21:00.189Z,101047.00
2018-07-23T21:25:53.453Z,101053.00
2018-07-23T21:30:46.695Z,101051.00
2018-07-23T21:35:39.908Z,101054.00
2018-07-23T21:40:33.185Z,101053.00
2018-07-23T21:45:26.400Z,101056.00
2018-07-23T21:50:19.672Z,101061.00
2018-07-23T21:55:12.977Z,101060.00
2018-07-23T22:00:14.251Z,101059.00
2018-07-23T22:05:07.921Z,101059.00
2018-07-23T22:10:01.137Z,101062.00
2018-07-23T22:14:54.378Z,101067.00
2018-07-23T22:19:47.608Z,101069.00
2018-07-23T22:24:40.826Z,101069.00
2018-07-23T22:29:33.990Z,101066.00
2018-07-23T22:34:27.185Z,101071.00
2018-07-23T22:39:20.469Z,101067.00
2018-07-23T22:44:13.695Z,101067.00
2018-07-23T22:49:06.885Z,101072.00
2018-07-23T22:54:00.109Z,101069.00
2018-07-23T22:58:53.335Z,101070.00
2018-07-23T23:03:46.542Z,101067.00
2018-07-23T23:08:39.759Z,101072.00
2018-07-23T23:13:33.000Z,101073.00
2018-07-23T23:18:26.241Z,101075.00
2018-07-23T23:23:19.461Z,101074.00
2018-07-23T23:28:12.663Z,101072.00
2018-07-23T23:33:06.091Z,101077.00
2018-07-23T23:37:59.292Z,101069.00
2018-07-23T23:42:52.492Z,101068.00
2018-07-23T23:47:45.712Z,101067.00
2018-07-23T23:52:38.924Z,101064.00
2018-07-23T23:57:32.442Z,101057.00
